OAS061 MPTO-SKBO
Flight info
| Callsign | OAS061 |
|---|---|
| Flight time | 1h 8m |
| Altitude | 37000 |
| Route | REMAL1A REMAL DCT KAKOL UP530 RNG UQ121 ISVAT ISVAT5E |
| Aircraft | B738/M-SDE2E3FGHIRWXY/LB1 |
Departure
| Time | 2026-05-05 21:22 |
|---|---|
| Airport | Tocumen International Airport (MPTO) |
Arrival
| Time | 2026-05-05 22:30 |
|---|---|
| Airport | El Dorado International Airport (SKBO) |
| Time | Latitude | Longitude | Altitude | Speed | Heading |
|---|---|---|---|---|---|
| 2026-05-05 20:46 | 9.06787 | -79.38449 | 29 ft | 0 kts | 289° |
| 2026-05-05 21:08 | 9.06785 | -79.38445 | 29 ft | 3 kts | 288° |
| 2026-05-05 21:08 | 9.06781 | -79.38423 | 29 ft | 3 kts | 264° |
| 2026-05-05 21:09 | 9.06787 | -79.38402 | 29 ft | 3 kts | 237° |
| 2026-05-05 21:09 | 9.06802 | -79.38386 | 29 ft | 3 kts | 209° |
| 2026-05-05 21:09 | 9.06806 | -79.38384 | 29 ft | 0 kts | 206° |
| 2026-05-05 21:13 | 9.06789 | -79.38393 | 32 ft | 6 kts | 205° |
| 2026-05-05 21:13 | 9.06740 | -79.38417 | 29 ft | 9 kts | 206° |
| 2026-05-05 21:13 | 9.06684 | -79.38447 | 29 ft | 9 kts | 208° |
| 2026-05-05 21:13 | 9.06629 | -79.38476 | 29 ft | 9 kts | 208° |
| 2026-05-05 21:14 | 9.06575 | -79.38504 | 29 ft | 10 kts | 207° |
| 2026-05-05 21:14 | 9.06506 | -79.38541 | 29 ft | 13 kts | 208° |
| 2026-05-05 21:14 | 9.06431 | -79.38581 | 29 ft | 12 kts | 207° |
| 2026-05-05 21:14 | 9.06346 | -79.38617 | 29 ft | 14 kts | 189° |
| 2026-05-05 21:15 | 9.06242 | -79.38623 | 29 ft | 16 kts | 181° |
| 2026-05-05 21:15 | 9.06151 | -79.38648 | 29 ft | 14 kts | 208° |
| 2026-05-05 21:15 | 9.06066 | -79.38694 | 29 ft | 11 kts | 210° |
| 2026-05-05 21:15 | 9.05993 | -79.38736 | 29 ft | 14 kts | 210° |
| 2026-05-05 21:16 | 9.05904 | -79.38787 | 29 ft | 16 kts | 210° |
| 2026-05-05 21:16 | 9.05831 | -79.38830 | 29 ft | 13 kts | 210° |
| 2026-05-05 21:16 | 9.05746 | -79.38880 | 29 ft | 15 kts | 210° |
| 2026-05-05 21:16 | 9.05666 | -79.38927 | 29 ft | 11 kts | 210° |
| 2026-05-05 21:17 | 9.05592 | -79.38970 | 29 ft | 14 kts | 210° |
| 2026-05-05 21:17 | 9.05504 | -79.39021 | 29 ft | 16 kts | 210° |
| 2026-05-05 21:17 | 9.05403 | -79.39080 | 29 ft | 14 kts | 209° |
| 2026-05-05 21:17 | 9.05312 | -79.39131 | 29 ft | 16 kts | 209° |
| 2026-05-05 21:18 | 9.05210 | -79.39188 | 29 ft | 18 kts | 209° |
| 2026-05-05 21:18 | 9.05121 | -79.39240 | 29 ft | 14 kts | 210° |
| 2026-05-05 21:18 | 9.05032 | -79.39291 | 29 ft | 14 kts | 210° |
| 2026-05-05 21:18 | 9.04941 | -79.39342 | 29 ft | 16 kts | 209° |
| 2026-05-05 21:19 | 9.04860 | -79.39377 | 29 ft | 12 kts | 179° |
| 2026-05-05 21:19 | 9.04814 | -79.39334 | 30 ft | 4 kts | 122° |
| 2026-05-05 21:19 | 9.04810 | -79.39327 | 30 ft | 0 kts | 121° |
| 2026-05-05 21:20 | 9.04801 | -79.39312 | 30 ft | 5 kts | 121° |
| 2026-05-05 21:20 | 9.04781 | -79.39270 | 29 ft | 7 kts | 95° |
| 2026-05-05 21:21 | 9.04806 | -79.39236 | 30 ft | 2 kts | 29° |
| 2026-05-05 21:21 | 9.04808 | -79.39235 | 30 ft | 0 kts | 27° |
| 2026-05-05 21:21 | 9.04809 | -79.39235 | 30 ft | 0 kts | 28° |
| 2026-05-05 21:21 | 9.04817 | -79.39230 | 30 ft | 11 kts | 28° |
| 2026-05-05 21:22 | 9.05109 | -79.39063 | 30 ft | 86 kts | 30° |
| 2026-05-05 21:22 | 9.05832 | -79.38652 | 31 ft | 150 kts | 30° |
| 2026-05-05 21:22 | 9.06876 | -79.38089 | 319 ft | 178 kts | 28° |
| 2026-05-05 21:22 | 9.07957 | -79.37490 | 1185 ft | 175 kts | 31° |
| 2026-05-05 21:23 | 9.08796 | -79.36591 | 1886 ft | 187 kts | 65° |
| 2026-05-05 21:23 | 9.08971 | -79.35192 | 2190 ft | 218 kts | 98° |
| 2026-05-05 21:23 | 9.08537 | -79.33688 | 2694 ft | 228 kts | 108° |
| 2026-05-05 21:23 | 9.08105 | -79.32109 | 3096 ft | 240 kts | 101° |
| 2026-05-05 21:24 | 9.07774 | -79.30423 | 3611 ft | 249 kts | 99° |
| 2026-05-05 21:24 | 9.07476 | -79.28657 | 4117 ft | 260 kts | 98° |
| 2026-05-05 21:24 | 9.07194 | -79.26840 | 4914 ft | 262 kts | 97° |
| 2026-05-05 21:24 | 9.06926 | -79.25017 | 5836 ft | 264 kts | 97° |
| 2026-05-05 21:25 | 9.06666 | -79.23174 | 6558 ft | 266 kts | 97° |
| 2026-05-05 21:25 | 9.06410 | -79.21325 | 6995 ft | 265 kts | 97° |
| 2026-05-05 21:25 | 9.06154 | -79.19462 | 7679 ft | 270 kts | 97° |
| 2026-05-05 21:25 | 9.05894 | -79.17569 | 8437 ft | 273 kts | 97° |
| 2026-05-05 21:26 | 9.05712 | -79.15638 | 9073 ft | 282 kts | 92° |
| 2026-05-05 21:26 | 9.05660 | -79.13630 | 9712 ft | 289 kts | 90° |
| 2026-05-05 21:26 | 9.05639 | -79.11585 | 10387 ft | 292 kts | 90° |
| 2026-05-05 21:26 | 9.05619 | -79.09522 | 11107 ft | 294 kts | 90° |
| 2026-05-05 21:27 | 9.05593 | -79.07442 | 11811 ft | 297 kts | 90° |
| 2026-05-05 21:27 | 9.05560 | -79.05341 | 12513 ft | 300 kts | 90° |
| 2026-05-05 21:27 | 9.05523 | -79.03222 | 13209 ft | 303 kts | 90° |
| 2026-05-05 21:27 | 9.05482 | -79.01082 | 13878 ft | 306 kts | 90° |
| 2026-05-05 21:28 | 9.05440 | -78.98924 | 14500 ft | 308 kts | 90° |
| 2026-05-05 21:28 | 9.05396 | -78.96749 | 15143 ft | 310 kts | 90° |
| 2026-05-05 21:28 | 9.05351 | -78.94559 | 15780 ft | 313 kts | 91° |
| 2026-05-05 21:28 | 9.05305 | -78.92352 | 16405 ft | 315 kts | 91° |
| 2026-05-05 21:29 | 9.05258 | -78.90125 | 17030 ft | 318 kts | 91° |
| 2026-05-05 21:29 | 9.05211 | -78.87875 | 17652 ft | 321 kts | 91° |
| 2026-05-05 21:29 | 9.05164 | -78.85611 | 18248 ft | 323 kts | 91° |
| 2026-05-05 21:29 | 9.05109 | -78.83327 | 18750 ft | 327 kts | 93° |
| 2026-05-05 21:30 | 9.04680 | -78.81043 | 19033 ft | 339 kts | 107° |
| 2026-05-05 21:30 | 9.03899 | -78.78722 | 19142 ft | 356 kts | 109° |
| 2026-05-05 21:30 | 9.03018 | -78.76322 | 19238 ft | 372 kts | 110° |
| 2026-05-05 21:30 | 9.02087 | -78.73826 | 19384 ft | 385 kts | 110° |
| 2026-05-05 21:31 | 9.01138 | -78.71270 | 19696 ft | 391 kts | 109° |
| 2026-05-05 21:31 | 9.00194 | -78.68692 | 20153 ft | 392 kts | 109° |
| 2026-05-05 21:31 | 8.99253 | -78.66097 | 20616 ft | 394 kts | 109° |
| 2026-05-05 21:31 | 8.98311 | -78.63477 | 21009 ft | 398 kts | 109° |
| 2026-05-05 21:32 | 8.97365 | -78.60829 | 21403 ft | 402 kts | 109° |
| 2026-05-05 21:32 | 8.96414 | -78.58161 | 21805 ft | 405 kts | 109° |
| 2026-05-05 21:32 | 8.95472 | -78.55513 | 22193 ft | 407 kts | 109° |
| 2026-05-05 21:32 | 8.94509 | -78.52806 | 22587 ft | 411 kts | 109° |
| 2026-05-05 21:33 | 8.93539 | -78.50081 | 22963 ft | 414 kts | 109° |
| 2026-05-05 21:33 | 8.92561 | -78.47333 | 23325 ft | 417 kts | 109° |
| 2026-05-05 21:33 | 8.91575 | -78.44564 | 23643 ft | 420 kts | 109° |
| 2026-05-05 21:33 | 8.90584 | -78.41781 | 23969 ft | 422 kts | 109° |
| 2026-05-05 21:34 | 8.89588 | -78.38984 | 24290 ft | 424 kts | 109° |
| 2026-05-05 21:34 | 8.88587 | -78.36176 | 24623 ft | 425 kts | 109° |
| 2026-05-05 21:34 | 8.87582 | -78.33354 | 24932 ft | 428 kts | 109° |
| 2026-05-05 21:34 | 8.86573 | -78.30523 | 25228 ft | 430 kts | 109° |
| 2026-05-05 21:35 | 8.85555 | -78.27671 | 25530 ft | 432 kts | 109° |
| 2026-05-05 21:35 | 8.84534 | -78.24809 | 25822 ft | 434 kts | 109° |
| 2026-05-05 21:35 | 8.83508 | -78.21933 | 26103 ft | 436 kts | 109° |
| 2026-05-05 21:35 | 8.82477 | -78.19044 | 26405 ft | 438 kts | 109° |
| 2026-05-05 21:36 | 8.81438 | -78.16135 | 26679 ft | 440 kts | 109° |
| 2026-05-05 21:36 | 8.80396 | -78.13216 | 26944 ft | 443 kts | 109° |
| 2026-05-05 21:36 | 8.79348 | -78.10283 | 27218 ft | 445 kts | 109° |
| 2026-05-05 21:36 | 8.78295 | -78.07336 | 27485 ft | 447 kts | 109° |
| 2026-05-05 21:37 | 8.77237 | -78.04374 | 27741 ft | 449 kts | 109° |
| 2026-05-05 21:37 | 8.76172 | -78.01396 | 28005 ft | 451 kts | 109° |
| 2026-05-05 21:37 | 8.75106 | -77.98415 | 28261 ft | 453 kts | 109° |
| 2026-05-05 21:37 | 8.74033 | -77.95416 | 28512 ft | 455 kts | 109° |
| 2026-05-05 21:38 | 8.72955 | -77.92402 | 28758 ft | 457 kts | 109° |
| 2026-05-05 21:38 | 8.71873 | -77.89379 | 28994 ft | 459 kts | 109° |
| 2026-05-05 21:38 | 8.70786 | -77.86342 | 29234 ft | 460 kts | 109° |
| 2026-05-05 21:38 | 8.69695 | -77.83296 | 29465 ft | 462 kts | 109° |
| 2026-05-05 21:39 | 8.68598 | -77.80234 | 29702 ft | 464 kts | 109° |
| 2026-05-05 21:39 | 8.67498 | -77.77163 | 29910 ft | 466 kts | 109° |
| 2026-05-05 21:39 | 8.66393 | -77.74080 | 30114 ft | 467 kts | 109° |
| 2026-05-05 21:39 | 8.65299 | -77.71029 | 30302 ft | 469 kts | 109° |
| 2026-05-05 21:40 | 8.64174 | -77.67890 | 30508 ft | 470 kts | 109° |
| 2026-05-05 21:40 | 8.63076 | -77.64831 | 30772 ft | 469 kts | 109° |
| 2026-05-05 21:40 | 8.61952 | -77.61696 | 31067 ft | 468 kts | 109° |
| 2026-05-05 21:40 | 8.60844 | -77.58609 | 31350 ft | 467 kts | 109° |
| 2026-05-05 21:41 | 8.59750 | -77.55563 | 31590 ft | 467 kts | 109° |
| 2026-05-05 21:41 | 8.58642 | -77.52476 | 31854 ft | 467 kts | 109° |
| 2026-05-05 21:41 | 8.57535 | -77.49391 | 32134 ft | 466 kts | 109° |
| 2026-05-05 21:41 | 8.56431 | -77.46318 | 32430 ft | 466 kts | 109° |
| 2026-05-05 21:42 | 8.55140 | -77.43318 | 32686 ft | 467 kts | 118° |
| 2026-05-05 21:42 | 8.53407 | -77.40545 | 32946 ft | 467 kts | 126° |
| 2026-05-05 21:42 | 8.51289 | -77.38066 | 33228 ft | 467 kts | 135° |
| 2026-05-05 21:42 | 8.48935 | -77.35804 | 33524 ft | 466 kts | 136° |
| 2026-05-05 21:43 | 8.46553 | -77.33582 | 33801 ft | 466 kts | 136° |
| 2026-05-05 21:43 | 8.44165 | -77.31365 | 34046 ft | 466 kts | 136° |
| 2026-05-05 21:43 | 8.41784 | -77.29143 | 34307 ft | 465 kts | 136° |
| 2026-05-05 21:43 | 8.40215 | -77.27670 | 34491 ft | 464 kts | 136° |
| 2026-05-05 21:44 | 8.37076 | -77.24700 | 34845 ft | 462 kts | 136° |
| 2026-05-05 21:44 | 8.34738 | -77.22476 | 35096 ft | 461 kts | 136° |
| 2026-05-05 21:44 | 8.32409 | -77.20257 | 35351 ft | 460 kts | 136° |
| 2026-05-05 21:44 | 8.30085 | -77.18041 | 35602 ft | 459 kts | 136° |
| 2026-05-05 21:45 | 8.28551 | -77.16578 | 35780 ft | 457 kts | 136° |
| 2026-05-05 21:45 | 8.25467 | -77.13638 | 36142 ft | 455 kts | 136° |
| 2026-05-05 21:45 | 8.23174 | -77.11453 | 36426 ft | 452 kts | 136° |
| 2026-05-05 21:45 | 8.21661 | -77.10012 | 36613 ft | 451 kts | 136° |
| 2026-05-05 21:46 | 8.18617 | -77.07114 | 36872 ft | 449 kts | 136° |
| 2026-05-05 21:46 | 8.16338 | -77.04945 | 36852 ft | 450 kts | 136° |
| 2026-05-05 21:46 | 8.12550 | -77.01340 | 36847 ft | 451 kts | 136° |
| 2026-05-05 21:47 | 8.07248 | -76.96296 | 36856 ft | 451 kts | 136° |
| 2026-05-05 21:47 | 8.02689 | -76.91959 | 36852 ft | 451 kts | 136° |
| 2026-05-05 21:48 | 7.98890 | -76.88346 | 36839 ft | 451 kts | 136° |
| 2026-05-05 21:48 | 7.94324 | -76.84007 | 36838 ft | 451 kts | 136° |
| 2026-05-05 21:49 | 7.89750 | -76.79659 | 36832 ft | 451 kts | 136° |
| 2026-05-05 21:49 | 7.85180 | -76.75317 | 36831 ft | 451 kts | 136° |
| 2026-05-05 21:50 | 7.80496 | -76.71103 | 36822 ft | 452 kts | 143° |
| 2026-05-05 21:50 | 7.75358 | -76.67448 | 36828 ft | 452 kts | 144° |
| 2026-05-05 21:51 | 7.70191 | -76.63847 | 36835 ft | 452 kts | 144° |
| 2026-05-05 21:51 | 7.65043 | -76.60219 | 36843 ft | 451 kts | 144° |
| 2026-05-05 21:52 | 7.57349 | -76.54754 | 36859 ft | 451 kts | 144° |
| 2026-05-05 21:53 | 7.52224 | -76.51111 | 36870 ft | 451 kts | 144° |
| 2026-05-05 21:53 | 7.47093 | -76.47467 | 36888 ft | 451 kts | 144° |
| 2026-05-05 21:54 | 7.41966 | -76.43827 | 36889 ft | 451 kts | 144° |
| 2026-05-05 21:54 | 7.36836 | -76.40186 | 36891 ft | 451 kts | 143° |
| 2026-05-05 21:55 | 7.31708 | -76.36547 | 36899 ft | 451 kts | 144° |
| 2026-05-05 21:55 | 7.26576 | -76.32906 | 36912 ft | 451 kts | 144° |
| 2026-05-05 21:56 | 7.21444 | -76.29266 | 36928 ft | 451 kts | 143° |
| 2026-05-05 21:56 | 7.16323 | -76.25628 | 36932 ft | 450 kts | 143° |
| 2026-05-05 21:57 | 7.11211 | -76.21992 | 36952 ft | 450 kts | 143° |
| 2026-05-05 21:57 | 7.06098 | -76.18357 | 36959 ft | 450 kts | 143° |
| 2026-05-05 21:58 | 7.00986 | -76.14724 | 36961 ft | 450 kts | 143° |
| 2026-05-05 21:58 | 6.95871 | -76.11090 | 36964 ft | 450 kts | 143° |
| 2026-05-05 21:59 | 6.90748 | -76.07451 | 36965 ft | 451 kts | 143° |
| 2026-05-05 21:59 | 6.85657 | -76.03835 | 36965 ft | 451 kts | 144° |
| 2026-05-05 22:00 | 6.80530 | -76.00196 | 36970 ft | 451 kts | 143° |
| 2026-05-05 22:00 | 6.75370 | -75.96534 | 36970 ft | 451 kts | 143° |
| 2026-05-05 22:01 | 6.70234 | -75.92889 | 36967 ft | 452 kts | 143° |
| 2026-05-05 22:01 | 6.65129 | -75.89268 | 36971 ft | 452 kts | 143° |
| 2026-05-05 22:02 | 6.59988 | -75.85622 | 36966 ft | 452 kts | 143° |
| 2026-05-05 22:02 | 6.54845 | -75.81976 | 36962 ft | 453 kts | 143° |
| 2026-05-05 22:03 | 6.49697 | -75.78327 | 36971 ft | 453 kts | 143° |
| 2026-05-05 22:03 | 6.44549 | -75.74679 | 36995 ft | 452 kts | 143° |
| 2026-05-05 22:04 | 6.39404 | -75.71035 | 37015 ft | 450 kts | 143° |
| 2026-05-05 22:04 | 6.34334 | -75.67445 | 37037 ft | 443 kts | 143° |
| 2026-05-05 22:05 | 6.29318 | -75.63892 | 36929 ft | 439 kts | 143° |
| 2026-05-05 22:05 | 6.26837 | -75.62135 | 36638 ft | 433 kts | 143° |
| 2026-05-05 22:05 | 6.24386 | -75.60401 | 36253 ft | 428 kts | 143° |
| 2026-05-05 22:05 | 6.21963 | -75.58686 | 35894 ft | 425 kts | 143° |
| 2026-05-05 22:06 | 6.19555 | -75.56981 | 35499 ft | 422 kts | 143° |
| 2026-05-05 22:06 | 6.17164 | -75.55289 | 35112 ft | 420 kts | 143° |
| 2026-05-05 22:06 | 6.14786 | -75.53606 | 34713 ft | 418 kts | 143° |
| 2026-05-05 22:06 | 6.12416 | -75.51929 | 34492 ft | 417 kts | 143° |
| 2026-05-05 22:07 | 6.10054 | -75.50257 | 34069 ft | 415 kts | 143° |
| 2026-05-05 22:07 | 6.07700 | -75.48590 | 33650 ft | 413 kts | 143° |
| 2026-05-05 22:07 | 6.05355 | -75.46931 | 33246 ft | 411 kts | 143° |
| 2026-05-05 22:07 | 6.03028 | -75.45285 | 32832 ft | 408 kts | 143° |
| 2026-05-05 22:08 | 6.00710 | -75.43647 | 32444 ft | 406 kts | 143° |
| 2026-05-05 22:08 | 5.98454 | -75.42031 | 32054 ft | 404 kts | 140° |
| 2026-05-05 22:08 | 5.96363 | -75.40169 | 31649 ft | 400 kts | 134° |
| 2026-05-05 22:08 | 5.94395 | -75.38155 | 31260 ft | 398 kts | 132° |
| 2026-05-05 22:09 | 5.92506 | -75.36175 | 30869 ft | 396 kts | 133° |
| 2026-05-05 22:09 | 5.90605 | -75.34181 | 30464 ft | 395 kts | 133° |
| 2026-05-05 22:09 | 5.88699 | -75.32195 | 30060 ft | 394 kts | 133° |
| 2026-05-05 22:09 | 5.86794 | -75.30226 | 29623 ft | 392 kts | 133° |
| 2026-05-05 22:10 | 5.84898 | -75.28275 | 29186 ft | 390 kts | 133° |
| 2026-05-05 22:10 | 5.83010 | -75.26338 | 28780 ft | 387 kts | 133° |
| 2026-05-05 22:10 | 5.81131 | -75.24413 | 28400 ft | 384 kts | 133° |
| 2026-05-05 22:10 | 5.79267 | -75.22505 | 28025 ft | 382 kts | 133° |
| 2026-05-05 22:11 | 5.77412 | -75.20605 | 27654 ft | 380 kts | 133° |
| 2026-05-05 22:11 | 5.75571 | -75.18719 | 27279 ft | 378 kts | 133° |
| 2026-05-05 22:11 | 5.73736 | -75.16840 | 26901 ft | 376 kts | 133° |
| 2026-05-05 22:11 | 5.71911 | -75.14972 | 26534 ft | 374 kts | 133° |
| 2026-05-05 22:12 | 5.70079 | -75.13129 | 26169 ft | 372 kts | 137° |
| 2026-05-05 22:12 | 5.67902 | -75.11736 | 25789 ft | 373 kts | 155° |
| 2026-05-05 22:12 | 5.65519 | -75.10734 | 25437 ft | 372 kts | 156° |
| 2026-05-05 22:12 | 5.63111 | -75.09777 | 25082 ft | 371 kts | 157° |
| 2026-05-05 22:13 | 5.60717 | -75.08831 | 24702 ft | 370 kts | 156° |
| 2026-05-05 22:13 | 5.58324 | -75.07874 | 24336 ft | 370 kts | 156° |
| 2026-05-05 22:13 | 5.55940 | -75.06908 | 23973 ft | 369 kts | 156° |
| 2026-05-05 22:13 | 5.53563 | -75.05937 | 23598 ft | 369 kts | 156° |
| 2026-05-05 22:14 | 5.51192 | -75.04964 | 23173 ft | 368 kts | 156° |
| 2026-05-05 22:14 | 5.48831 | -75.03992 | 22775 ft | 366 kts | 156° |
| 2026-05-05 22:14 | 5.46484 | -75.03025 | 22388 ft | 364 kts | 156° |
| 2026-05-05 22:14 | 5.44148 | -75.02063 | 22006 ft | 361 kts | 156° |
| 2026-05-05 22:15 | 5.41833 | -75.01110 | 21636 ft | 359 kts | 156° |
| 2026-05-05 22:15 | 5.39561 | -75.00175 | 21273 ft | 357 kts | 156° |
| 2026-05-05 22:15 | 5.37266 | -74.99226 | 20906 ft | 355 kts | 155° |
| 2026-05-05 22:15 | 5.34997 | -74.98268 | 20550 ft | 353 kts | 155° |
| 2026-05-05 22:16 | 5.32739 | -74.97307 | 20170 ft | 352 kts | 155° |
| 2026-05-05 22:16 | 5.30496 | -74.96352 | 19824 ft | 348 kts | 155° |
| 2026-05-05 22:16 | 5.28292 | -74.95416 | 19458 ft | 340 kts | 155° |
| 2026-05-05 22:16 | 5.26128 | -74.94498 | 19130 ft | 337 kts | 155° |
| 2026-05-05 22:17 | 5.23967 | -74.93582 | 18777 ft | 337 kts | 155° |
| 2026-05-05 22:17 | 5.21829 | -74.92638 | 18436 ft | 335 kts | 148° |
| 2026-05-05 22:17 | 5.20035 | -74.91186 | 17813 ft | 331 kts | 127° |
| 2026-05-05 22:17 | 5.18795 | -74.89282 | 17397 ft | 322 kts | 118° |
| 2026-05-05 22:18 | 5.17712 | -74.87328 | 17031 ft | 319 kts | 117° |
| 2026-05-05 22:18 | 5.16640 | -74.85384 | 16683 ft | 318 kts | 118° |
| 2026-05-05 22:18 | 5.15567 | -74.83470 | 16502 ft | 311 kts | 118° |
| 2026-05-05 22:18 | 5.14497 | -74.81615 | 16484 ft | 304 kts | 119° |
| 2026-05-05 22:19 | 5.13436 | -74.79785 | 16492 ft | 304 kts | 116° |
| 2026-05-05 22:19 | 5.12793 | -74.77769 | 16500 ft | 305 kts | 99° |
| 2026-05-05 22:19 | 5.12100 | -74.75792 | 16492 ft | 298 kts | 120° |
| 2026-05-05 22:19 | 5.10985 | -74.74083 | 16441 ft | 289 kts | 122° |
| 2026-05-05 22:20 | 5.09868 | -74.72415 | 16150 ft | 288 kts | 122° |
| 2026-05-05 22:20 | 5.08750 | -74.70700 | 15522 ft | 300 kts | 122° |
| 2026-05-05 22:20 | 5.07641 | -74.68948 | 15171 ft | 300 kts | 121° |
| 2026-05-05 22:20 | 5.06545 | -74.67178 | 14958 ft | 298 kts | 121° |
| 2026-05-05 22:21 | 5.05472 | -74.65416 | 14806 ft | 295 kts | 120° |
| 2026-05-05 22:21 | 5.04413 | -74.63659 | 14658 ft | 295 kts | 120° |
| 2026-05-05 22:21 | 5.03355 | -74.61891 | 14506 ft | 297 kts | 120° |
| 2026-05-05 22:21 | 5.02287 | -74.60101 | 14336 ft | 300 kts | 120° |
| 2026-05-05 22:22 | 5.01222 | -74.58312 | 14174 ft | 298 kts | 120° |
| 2026-05-05 22:22 | 5.00165 | -74.56536 | 13995 ft | 295 kts | 120° |
| 2026-05-05 22:22 | 4.99116 | -74.54770 | 13860 ft | 295 kts | 120° |
| 2026-05-05 22:22 | 4.98063 | -74.52997 | 13686 ft | 295 kts | 120° |
| 2026-05-05 22:23 | 4.97013 | -74.51227 | 13508 ft | 295 kts | 120° |
| 2026-05-05 22:23 | 4.95963 | -74.49459 | 13334 ft | 295 kts | 120° |
| 2026-05-05 22:23 | 4.94916 | -74.47697 | 13176 ft | 294 kts | 120° |
| 2026-05-05 22:23 | 4.93873 | -74.45941 | 13004 ft | 293 kts | 120° |
| 2026-05-05 22:24 | 4.92845 | -74.44200 | 12842 ft | 287 kts | 120° |
| 2026-05-05 22:24 | 4.91811 | -74.42539 | 12700 ft | 279 kts | 123° |
| 2026-05-05 22:24 | 4.90716 | -74.40980 | 12665 ft | 268 kts | 126° |
| 2026-05-05 22:24 | 4.89625 | -74.39517 | 12678 ft | 256 kts | 126° |
| 2026-05-05 22:25 | 4.88563 | -74.38108 | 12707 ft | 251 kts | 126° |
| 2026-05-05 22:25 | 4.87513 | -74.36717 | 12746 ft | 250 kts | 126° |
| 2026-05-05 22:25 | 4.86465 | -74.35325 | 12772 ft | 251 kts | 126° |
| 2026-05-05 22:25 | 4.85405 | -74.33915 | 12604 ft | 256 kts | 126° |
| 2026-05-05 22:26 | 4.84325 | -74.32478 | 12293 ft | 256 kts | 126° |
| 2026-05-05 22:26 | 4.83266 | -74.31071 | 12011 ft | 251 kts | 126° |
| 2026-05-05 22:26 | 4.82220 | -74.29681 | 11737 ft | 248 kts | 126° |
| 2026-05-05 22:26 | 4.81191 | -74.28312 | 11448 ft | 243 kts | 126° |
| 2026-05-05 22:27 | 4.80189 | -74.26980 | 11166 ft | 234 kts | 126° |
| 2026-05-05 22:27 | 4.79236 | -74.25711 | 10884 ft | 222 kts | 126° |
| 2026-05-05 22:27 | 4.78330 | -74.24507 | 10657 ft | 210 kts | 126° |
| 2026-05-05 22:27 | 4.77479 | -74.23374 | 10403 ft | 197 kts | 126° |
| 2026-05-05 22:28 | 4.76693 | -74.22329 | 10209 ft | 179 kts | 127° |
| 2026-05-05 22:28 | 4.75975 | -74.21377 | 9971 ft | 166 kts | 125° |
| 2026-05-05 22:28 | 4.75288 | -74.20460 | 9778 ft | 167 kts | 126° |
| 2026-05-05 22:28 | 4.74578 | -74.19516 | 9545 ft | 168 kts | 126° |
| 2026-05-05 22:29 | 4.73883 | -74.18589 | 9300 ft | 170 kts | 126° |
| 2026-05-05 22:29 | 4.73171 | -74.17647 | 9049 ft | 169 kts | 127° |
| 2026-05-05 22:29 | 4.72453 | -74.16704 | 8768 ft | 170 kts | 127° |
| 2026-05-05 22:29 | 4.71742 | -74.15755 | 8540 ft | 171 kts | 128° |
| 2026-05-05 22:30 | 4.71024 | -74.14804 | 8371 ft | 166 kts | 127° |
| 2026-05-05 22:30 | 4.70411 | -74.13980 | 8364 ft | 120 kts | 125° |
| 2026-05-05 22:30 | 4.70038 | -74.13479 | 8365 ft | 55 kts | 127° |
| 2026-05-05 22:30 | 4.69838 | -74.13314 | 8366 ft | 33 kts | 166° |
| 2026-05-05 22:31 | 4.69745 | -74.13300 | 8365 ft | 0 kts | 172° |
| 2026-05-05 22:32 | 4.69739 | -74.13299 | 8365 ft | 2 kts | 171° |
| 2026-05-05 22:32 | 4.69712 | -74.13295 | 8365 ft | 5 kts | 172° |
| 2026-05-05 22:32 | 4.69679 | -74.13312 | 8365 ft | 6 kts | 235° |
| 2026-05-05 22:32 | 4.69693 | -74.13356 | 8365 ft | 8 kts | 305° |
| 2026-05-05 22:33 | 4.69727 | -74.13405 | 8365 ft | 9 kts | 305° |
| 2026-05-05 22:33 | 4.69770 | -74.13459 | 8365 ft | 11 kts | 309° |
| 2026-05-05 22:33 | 4.69814 | -74.13517 | 8365 ft | 8 kts | 307° |
| 2026-05-05 22:33 | 4.69842 | -74.13561 | 8365 ft | 2 kts | 281° |
| 2026-05-05 22:34 | 4.69830 | -74.13581 | 8365 ft | 5 kts | 233° |
| 2026-05-05 22:34 | 4.69803 | -74.13605 | 8365 ft | 6 kts | 218° |
| 2026-05-05 22:34 | 4.69763 | -74.13634 | 8365 ft | 8 kts | 208° |
| 2026-05-05 22:34 | 4.69713 | -74.13618 | 8365 ft | 9 kts | 130° |
| 2026-05-05 22:35 | 4.69675 | -74.13569 | 8365 ft | 5 kts | 132° |
| 2026-05-05 22:35 | 4.69643 | -74.13567 | 8365 ft | 6 kts | 206° |
| 2026-05-05 22:35 | 4.69608 | -74.13593 | 8365 ft | 6 kts | 218° |
| 2026-05-05 22:35 | 4.69595 | -74.13603 | 8365 ft | 1 kts | 216° |
| 2026-05-05 22:36 | 4.69594 | -74.13604 | 8365 ft | 0 kts | 217° |